Centre De Secours Principal Heliport

FR-0031 · Yonne, Bourgogne-Franche-Comté, Frankrijk

METAR historie FR-0031 · Centre De Secours Principal Heliport

Hieronder zie je METAR's van de afgelopen dagen. Kies een jaar om door oudere METAR's te bladeren, vanaf het jaar 2007.

24 juli 2024

Tijd Code Weer Temp. Zicht Plafond Wind METAR/SPECI
08:00
M
15 °C 10 km+ 2.900 ft Var Var 2 kt METAR LFQB 240600Z AUTO VRB02KT 9999 OVC029 15/14 Q1022
07:30
M
14 °C 10 km+ 2.500 ft 320° 320° 3 kt METAR LFQB 240530Z AUTO 32003KT 9999 BKN025 14/13 Q1022
07:00
V
13 °C 10 km+ - 320° 320° 5 kt METAR LFQB 240500Z AUTO 32005KT CAVOK 13/12 Q1022
06:30
V
13 °C 10 km+ - 320° 320° 5 kt METAR LFQB 240430Z AUTO 32005KT CAVOK 13/12 Q1022
06:00
V
13 °C 10 km+ - 310° 310° 3 kt METAR LFQB 240400Z AUTO 31003KT CAVOK 13/12 Q1022
05:30
V
13 °C 10 km+ - 310° 310° 3 kt METAR LFQB 240330Z AUTO 31003KT 9999 FEW039 13/12 Q1022
05:00
V
14 °C 10 km+ - 320° 320° 4 kt METAR LFQB 240300Z AUTO 32004KT 9999 FEW039 14/12 Q1022
04:30
V
15 °C 10 km+ - 340° 340° 4 kt METAR LFQB 240230Z AUTO 34004KT CAVOK 15/13 Q1022
04:00
V
14 °C 10 km+ - 320° 320° 3 kt METAR LFQB 240200Z AUTO 32003KT CAVOK 14/13 Q1022
03:30
V
14 °C 10 km+ - 320° 320° 5 kt METAR LFQB 240130Z AUTO 32005KT CAVOK 14/13 Q1022
03:00
V
14 °C 10 km+ - 300° 300° 4 kt METAR LFQB 240100Z AUTO 30004KT CAVOK 14/13 Q1022
02:30
V
15 °C 10 km+ - 300° 300° 4 kt METAR LFQB 240030Z AUTO 30004KT CAVOK 15/13 Q1022
02:00
V
16 °C 10 km+ - 300° 300° 4 kt METAR LFQB 240000Z AUTO 30004KT CAVOK 16/13 Q1022
01:30
V
16 °C 10 km+ - 280° 280° 4 kt METAR LFQB 232330Z AUTO 28004KT CAVOK 16/13 Q1022
01:00
V
16 °C 10 km+ - 290° 290° 5 kt METAR LFQB 232300Z AUTO 29005KT CAVOK 16/14 Q1022
00:30
V
16 °C 10 km+ - 300° 300° 5 kt METAR LFQB 232230Z AUTO 30005KT CAVOK 16/14 Q1022
00:00
V
17 °C 10 km+ - 290° 290° 4 kt METAR LFQB 232200Z AUTO 29004KT CAVOK 17/15 Q1022

23 juli 2024

Tijd Code Weer Temp. Zicht Plafond Wind METAR/SPECI
23:30
V
17 °C 10 km+ - 320° 320° 4 kt METAR LFQB 232130Z AUTO 32004KT CAVOK 17/14 Q1022
23:00
V
17 °C 10 km+ 5.800 ft 310° 310° 5 kt METAR LFQB 232100Z AUTO 31005KT 9999 SCT048 OVC058 17/15 Q1022
22:30
V
18 °C 10 km+ 4.200 ft 300° 300° 5 kt METAR LFQB 232030Z AUTO 30005KT 9999 BKN042 BKN049 OVC058 18/15 Q1022
22:00
V
18 °C 10 km+ 5.800 ft 330° 330° 7 kt METAR LFQB 232000Z AUTO 33007KT 9999 FEW041 SCT049 BKN058 18/14 Q1022
21:30
V
19 °C 10 km+ - 340° 340° 9 kt METAR LFQB 231930Z AUTO 34009KT CAVOK 19/14 Q1021
21:00
V
21 °C 10 km+ 5.800 ft 350° 350° 9 kt METAR LFQB 231900Z AUTO 35009KT 9999 FEW045 BKN058 21/14 Q1021
20:30
V
21 °C 10 km+ 6.000 ft 350° 350° 12 kt METAR LFQB 231830Z AUTO 35012KT 9999 SCT044 BKN060 21/14 Q1021
20:00
V
22 °C 10 km+ 4.900 ft 330° 330° 11 kt METAR LFQB 231800Z AUTO 33011KT 9999 SCT043 BKN049 OVC056 22/15 Q1020
19:30
V
23 °C 10 km+ 4.400 ft 340° 340° 11 kt METAR LFQB 231730Z AUTO 34011KT 9999 FEW037 BKN044 23/16 Q1020
19:00
V
23 °C 10 km+ - 330° 330° 10 kt METAR LFQB 231700Z AUTO 33010KT 9999 FEW035/// SCT043/// //////CB 23/17 Q1020
18:30
V
24 °C 10 km+ 3.400 ft 300° 300° 11 kt METAR LFQB 231630Z AUTO 30011KT 9999 BKN034/// BKN044/// BKN052/// ///CB 24/19 Q1020
18:00
V
24 °C 10 km+ 4.100 ft 300° 300° 8 kt METAR LFQB 231600Z AUTO 30008KT 9999 FEW024/// BKN041/// BKN052/// ///TCU 24/19 Q1019
17:30
V
23 °C 10 km+ 3.300 ft 280° 280° 7 kt METAR LFQB 231530Z AUTO 28007KT 260V320 9999 FEW009/// SCT020/// BKN033/// ///CB 23/20 Q1020
17:00
V
22 °C 10 km+ 3.400 ft 300° 300° 6 kt METAR LFQB 231500Z AUTO 30006KT 9999 FEW008/// BKN034/// BKN044/// ///CB 22/20 Q1020
16:30
M
21 °C 10 km+ 2.900 ft 310° 310° 9 kt METAR LFQB 231430Z AUTO 31009KT 9999 -RA FEW013/// OVC029/// ///TCU 21/19 Q1020
16:00
V
24 °C 10 km+ 3.900 ft 250° 250° 15 kt METAR LFQB 231400Z AUTO 25015KT 9999 FEW024/// SCT032/// BKN039/// //////TCU 24/18 Q1020
15:30
M
24 °C 10 km+ 2.200 ft 250° 250° 13 kt METAR LFQB 231330Z AUTO 25013KT 9999 FEW015/// BKN022/// BKN029/// ///CB 24/19 Q1020
15:00
M
23 °C 10 km+ 1.500 ft 230° 230° 15 kt METAR LFQB 231300Z AUTO 23015KT 9999 FEW007/// BKN015/// BKN049/// ///TCU 23/19 Q1020
14:30
M
22 °C 10 km+ 1.300 ft 240° 240° 12 kt METAR LFQB 231230Z AUTO 24012KT 9999 BKN013 BKN019 OVC035 22/20 Q1020
14:00
I
21 °C 3,8 km 1.200 ft 240° 240° 12 kt METAR LFQB 231200Z AUTO 24012KT 3800 -RADZ BR BKN012 BKN019 OVC026 21/20 Q1020
13:30
M
21 °C 10 km+ 1.200 ft 230° 230° 11 kt METAR LFQB 231130Z AUTO 23011KT 9999 BKN012 OVC022 21/19 Q1020
13:00
M
21 °C 8 km 1.000 ft 230° 230° 11 kt METAR LFQB 231100Z AUTO 23011KT 8000 BKN010 BKN014 OVC040 21/19 Q1020
12:30
I
21 °C 10 km+ 900 ft 230° 230° 13 kt METAR LFQB 231030Z AUTO 23013KT 9999 BKN009 BKN013 OVC034 21/19 Q1020
12:00
M
21 °C 10 km+ 1.000 ft 230° 230° 12 kt METAR LFQB 231000Z AUTO 23012KT 9999 BKN010 BKN015 OVC022 21/19 Q1020
11:30
M
20 °C 9 km 1.200 ft 230° 230° 12 kt METAR LFQB 230930Z AUTO 23012KT 9000 BKN012 BKN017 BKN033 20/19 Q1020
11:00
M
20 °C 10 km+ 1.200 ft 230° 230° 12 kt METAR LFQB 230900Z AUTO 23012KT 9999 OVC012 20/18 Q1020
10:30
M
20 °C 10 km+ 1.300 ft 210° 210° 10 kt METAR LFQB 230830Z AUTO 21010KT 9999 OVC013 20/18 Q1020
10:00
M
19 °C 10 km+ 1.000 ft 220° 220° 8 kt METAR LFQB 230800Z AUTO 22008KT 9999 BKN010 OVC020 19/18 Q1020
09:30
I
19 °C 3,5 km 700 ft 220° 220° 9 kt METAR LFQB 230730Z AUTO 22009KT 3500 -DZ BR BKN007 BKN012 OVC020 19/18 Q1020
09:00
I
19 °C 4,1 km 700 ft 220° 220° 8 kt METAR LFQB 230700Z AUTO 22008KT 4100 -DZ BR BKN007 OVC012 19/18 Q1020
08:30
M
18 °C 8 km 1.100 ft 210° 210° 8 kt METAR LFQB 230630Z AUTO 21008KT 8000 OVC011 18/17 Q1020
08:00
M
18 °C 10 km+ 1.300 ft 210° 210° 8 kt METAR LFQB 230600Z AUTO 21008KT 9999 BKN013 OVC019 18/17 Q1020
07:30
M
18 °C 10 km+ 1.600 ft 210° 210° 6 kt METAR LFQB 230530Z AUTO 21006KT 9999 BKN016 OVC024 18/16 Q1020
07:00
M
18 °C 10 km+ 2.700 ft 190° 190° 6 kt METAR LFQB 230500Z AUTO 19006KT 9999 BKN027 OVC033 18/16 Q1020
06:30
V
18 °C 10 km+ 3.700 ft 190° 190° 7 kt METAR LFQB 230430Z AUTO 19007KT 9999 BKN037 OVC044 18/16 Q1020
06:00
V
17 °C 10 km+ 4.000 ft 200° 200° 6 kt METAR LFQB 230400Z AUTO 20006KT 9999 BKN040 BKN068 OVC110 17/16 Q1020
05:30
V
17 °C 10 km+ 6.600 ft 200° 200° 6 kt METAR LFQB 230330Z AUTO 20006KT 9999 SCT042 OVC066 17/16 Q1020
05:00
V
17 °C 10 km+ 6.600 ft 200° 200° 5 kt METAR LFQB 230300Z AUTO 20005KT 9999 FEW047 OVC066 17/16 Q1020
04:30
V
17 °C 10 km+ - 200° 200° 7 kt METAR LFQB 230230Z AUTO 20007KT 170V250 CAVOK 17/15 Q1020
04:00
V
17 °C 10 km+ - 190° 190° 6 kt METAR LFQB 230200Z AUTO 19006KT CAVOK 17/15 Q1020
03:30
V
17 °C 10 km+ - 180° 180° 5 kt METAR LFQB 230130Z AUTO 18005KT 150V210 9999 FEW041 17/15 Q1020
03:00
V
18 °C 10 km+ - 170° 170° 4 kt METAR LFQB 230100Z AUTO 17004KT CAVOK 18/15 Q1021
02:30
V
19 °C 10 km+ - 170° 170° 5 kt METAR LFQB 230030Z AUTO 17005KT 140V240 CAVOK 19/16 Q1021
02:00
V
19 °C 10 km+ - Var Var 3 kt METAR LFQB 230000Z AUTO VRB03KT CAVOK 19/16 Q1021
01:30
V
19 °C 10 km+ - Var Var 2 kt METAR LFQB 222330Z AUTO VRB02KT CAVOK 19/16 Q1021
01:00
V
19 °C 10 km+ - Var Var 2 kt METAR LFQB 222300Z AUTO VRB02KT CAVOK 19/16 Q1021
00:30
V
18 °C 10 km+ - Var Var 3 kt METAR LFQB 222230Z AUTO VRB03KT CAVOK 18/16 Q1021
00:00
V
18 °C 10 km+ - 190° 190° 6 kt METAR LFQB 222200Z AUTO 19006KT CAVOK 18/16 Q1021

22 juli 2024

Tijd Code Weer Temp. Zicht Plafond Wind METAR/SPECI
23:30
V
18 °C 10 km+ - 190° 190° 6 kt METAR LFQB 222130Z AUTO 19006KT CAVOK 18/15 Q1021
23:00
V
18 °C 10 km+ - 190° 190° 5 kt METAR LFQB 222100Z AUTO 19005KT CAVOK 18/16 Q1021
22:30
V
17 °C 10 km+ - 210° 210° 5 kt METAR LFQB 222030Z AUTO 21005KT CAVOK 17/15 Q1021
22:00
V
18 °C 10 km+ - 210° 210° 4 kt METAR LFQB 222000Z AUTO 21004KT CAVOK 18/15 Q1020
21:30
V
20 °C 10 km+ - 220° 220° 5 kt METAR LFQB 221930Z AUTO 22005KT CAVOK 20/16 Q1020
21:00
V
21 °C 10 km+ 4.800 ft 230° 230° 5 kt METAR LFQB 221900Z AUTO 23005KT 9999 OVC048 21/16 Q1020
20:30
V
22 °C 10 km+ 4.800 ft 230° 230° 5 kt METAR LFQB 221830Z AUTO 23005KT 9999 OVC048 22/16 Q1020
20:00
V
23 °C 10 km+ 4.700 ft 250° 250° 6 kt METAR LFQB 221800Z AUTO 25006KT 9999 OVC047 23/15 Q1020
19:30
V
23 °C 10 km+ 4.500 ft 260° 260° 7 kt METAR LFQB 221730Z AUTO 26007KT 9999 OVC045 23/15 Q1020
19:00
V
23 °C 10 km+ 4.200 ft 260° 260° 5 kt METAR LFQB 221700Z AUTO 26005KT 230V290 9999 BKN042 23/15 Q1020
18:30
V
24 °C 10 km+ 4.300 ft 280° 280° 7 kt METAR LFQB 221630Z AUTO 28007KT 220V310 9999 BKN043 24/15 Q1020
18:00
V
24 °C 10 km+ 4.200 ft 240° 240° 7 kt METAR LFQB 221600Z AUTO 24007KT 200V300 9999 BKN042 24/16 Q1020
17:30
V
24 °C 10 km+ 4.200 ft 260° 260° 8 kt METAR LFQB 221530Z AUTO 26008KT 230V300 9999 BKN042 24/14 Q1020
17:00
V
23 °C 10 km+ 4.200 ft 270° 270° 9 kt METAR LFQB 221500Z AUTO 27009KT 240V310 9999 BKN042 23/15 Q1020
16:30
V
24 °C 10 km+ 4.400 ft 270° 270° 10 kt METAR LFQB 221430Z AUTO 27010KT 240V310 9999 BKN044 24/15 Q1020
16:00
V
23 °C 10 km+ 4.300 ft 280° 280° 10 kt METAR LFQB 221400Z AUTO 28010KT 250V310 9999 BKN043 23/15 Q1020
15:30
V
23 °C 10 km+ 4.200 ft 280° 280° 6 kt METAR LFQB 221330Z AUTO 28006KT 220V320 9999 OVC042 23/14 Q1021
15:00
V
23 °C 10 km+ 4.300 ft 280° 280° 9 kt METAR LFQB 221300Z AUTO 28009KT 240V320 9999 OVC043 23/14 Q1021
14:30
V
24 °C 10 km+ 4.300 ft 280° 280° 10 kt METAR LFQB 221230Z AUTO 28010KT 240V320 9999 BKN043 24/15 Q1021
14:00
V
23 °C 10 km+ - 280° 280° 10 kt METAR LFQB 221200Z AUTO 28010KT 240V320 9999 SCT041 23/13 Q1020
13:30
V
23 °C 10 km+ - 290° 290° 9 kt METAR LFQB 221130Z AUTO 29009KT 230V340 9999 FEW041 SCT062 23/14 Q1020
13:00
V
22 °C 10 km+ - 300° 300° 10 kt METAR LFQB 221100Z AUTO 30010KT 260V340 9999 FEW040 22/14 Q1021
12:30
V
22 °C 10 km+ - 280° 280° 12 kt METAR LFQB 221030Z AUTO 28012KT 240V310 9999 FEW035 22/13 Q1021
12:00
V
21 °C 10 km+ 3.300 ft Var Var 7 kt METAR LFQB 221000Z AUTO VRB07KT 9999 BKN033 21/14 Q1020
11:30
M
20 °C 10 km+ 2.800 ft 290° 290° 6 kt METAR LFQB 220930Z AUTO 29006KT 250V320 9999 BKN028 BKN035 BKN072 20/14 Q1020
11:00
M
20 °C 10 km+ 2.800 ft 280° 280° 9 kt METAR LFQB 220900Z AUTO 28009KT 240V300 9999 BKN028 20/14 Q1020
10:30
M
20 °C 10 km+ 2.500 ft 290° 290° 9 kt METAR LFQB 220830Z AUTO 29009KT 250V320 9999 BKN025 BKN033 BKN070 20/14 Q1020
10:00
M
19 °C 10 km+ 2.400 ft 270° 270° 5 kt METAR LFQB 220800Z AUTO 27005KT 230V300 9999 BKN024 BKN068 19/14 Q1020
09:30
M
18 °C 10 km+ 2.800 ft 300° 300° 5 kt METAR LFQB 220730Z AUTO 30005KT 9999 SCT020 BKN028 18/14 Q1020
09:00
M
18 °C 10 km+ 2.700 ft 310° 310° 7 kt METAR LFQB 220700Z AUTO 31007KT 280V340 9999 FEW018 BKN027 18/14 Q1020
08:30
M
17 °C 10 km+ 2.900 ft 300° 300° 7 kt METAR LFQB 220630Z AUTO 30007KT 9999 FEW012 BKN029 17/14 Q1020
08:00
M
17 °C 10 km+ 2.700 ft 320° 320° 6 kt METAR LFQB 220600Z AUTO 32006KT 9999 BKN027 17/14 Q1019
Wijziging doorgeven